sensor_id;sensor_type;location;lat;lon;timestamp;pressure;altitude;pressure_sealevel;temperature;humidity
40940;BME280;26666;50.156;7.700;2022-10-16T00:04:52;100151.97;;;14.49;100.00
40940;BME280;26666;50.156;7.700;2022-10-16T00:09:53;100144.34;;;14.54;100.00
40940;BME280;26666;50.156;7.700;2022-10-16T00:14:54;100147.97;;;14.53;100.00
40940;BME280;26666;50.156;7.700;2022-10-16T00:19:56;100164.41;;;14.40;100.00
40940;BME280;26666;50.156;7.700;2022-10-16T00:24:57;100142.34;;;14.48;100.00
40940;BME280;26666;50.156;7.700;2022-10-16T00:29:59;100160.97;;;14.56;100.00
40940;BME280;26666;50.156;7.700;2022-10-16T00:35:00;100166.75;;;14.51;100.00
40940;BME280;26666;50.156;7.700;2022-10-16T00:40:02;100161.75;;;14.40;100.00
40940;BME280;26666;50.156;7.700;2022-10-16T00:45:04;100166.88;;;14.42;100.00
40940;BME280;26666;50.156;7.700;2022-10-16T00:55:14;100171.38;;;14.41;100.00
40940;BME280;26666;50.156;7.700;2022-10-16T01:00:22;100174.03;;;14.41;100.00
40940;BME280;26666;50.156;7.700;2022-10-16T01:05:30;100179.19;;;14.43;100.00
40940;BME280;26666;50.156;7.700;2022-10-16T01:10:40;100180.50;;;14.38;100.00
40940;BME280;26666;50.156;7.700;2022-10-16T01:15:51;100178.53;;;14.40;100.00
40940;BME280;26666;50.156;7.700;2022-10-16T01:20:59;100177.81;;;14.30;100.00
40940;BME280;26666;50.156;7.700;2022-10-16T01:31:47;100170.91;;;14.46;100.00
40940;BME280;26666;50.156;7.700;2022-10-16T01:36:57;100193.81;;;14.47;100.00
40940;BME280;26666;50.156;7.700;2022-10-16T01:42:07;100193.28;;;14.35;100.00
40940;BME280;26666;50.156;7.700;2022-10-16T01:47:10;100187.69;;;14.46;100.00
40940;BME280;26666;50.156;7.700;2022-10-16T01:52:17;100185.00;;;14.38;100.00
40940;BME280;26666;50.156;7.700;2022-10-16T01:57:23;100192.78;;;14.39;100.00
40940;BME280;26666;50.156;7.700;2022-10-16T02:02:27;100176.53;;;14.43;100.00
40940;BME280;26666;50.156;7.700;2022-10-16T02:07:29;100175.38;;;14.53;100.00
40940;BME280;26666;50.156;7.700;2022-10-16T02:12:33;100191.06;;;14.56;100.00
40940;BME280;26666;50.156;7.700;2022-10-16T02:22:42;100222.28;;;14.54;100.00
40940;BME280;26666;50.156;7.700;2022-10-16T02:27:58;100227.88;;;14.43;100.00
40940;BME280;26666;50.156;7.700;2022-10-16T02:33:02;100237.69;;;14.51;100.00
40940;BME280;26666;50.156;7.700;2022-10-16T02:38:07;100215.41;;;14.44;100.00
40940;BME280;26666;50.156;7.700;2022-10-16T02:43:15;100206.13;;;14.48;100.00
40940;BME280;26666;50.156;7.700;2022-10-16T02:48:17;100206.03;;;14.57;100.00
40940;BME280;26666;50.156;7.700;2022-10-16T02:53:18;100205.25;;;14.65;100.00
40940;BME280;26666;50.156;7.700;2022-10-16T02:58:20;100208.22;;;14.62;100.00
40940;BME280;26666;50.156;7.700;2022-10-16T03:03:21;100192.25;;;14.62;100.00
40940;BME280;26666;50.156;7.700;2022-10-16T03:08:23;100193.53;;;14.50;100.00
40940;BME280;26666;50.156;7.700;2022-10-16T03:13:26;100186.72;;;14.55;100.00
40940;BME280;26666;50.156;7.700;2022-10-16T03:18:28;100181.94;;;14.59;100.00
40940;BME280;26666;50.156;7.700;2022-10-16T03:23:30;100179.34;;;14.41;100.00
40940;BME280;26666;50.156;7.700;2022-10-16T03:28:36;100192.03;;;14.55;100.00
40940;BME280;26666;50.156;7.700;2022-10-16T03:33:38;100211.19;;;14.59;100.00
40940;BME280;26666;50.156;7.700;2022-10-16T03:38:39;100218.53;;;14.65;100.00
40940;BME280;26666;50.156;7.700;2022-10-16T03:43:41;100232.75;;;14.56;100.00
40940;BME280;26666;50.156;7.700;2022-10-16T03:48:42;100236.13;;;14.66;100.00
40940;BME280;26666;50.156;7.700;2022-10-16T03:53:44;100237.47;;;14.70;100.00
40940;BME280;26666;50.156;7.700;2022-10-16T03:58:45;100234.00;;;14.70;100.00
40940;BME280;26666;50.156;7.700;2022-10-16T04:03:47;100234.00;;;14.70;100.00
40940;BME280;26666;50.156;7.700;2022-10-16T04:08:49;100229.72;;;14.77;100.00
40940;BME280;26666;50.156;7.700;2022-10-16T04:13:50;100218.88;;;14.70;100.00
40940;BME280;26666;50.156;7.700;2022-10-16T04:18:52;100229.50;;;14.70;100.00
40940;BME280;26666;50.156;7.700;2022-10-16T04:23:53;100234.31;;;14.67;100.00
40940;BME280;26666;50.156;7.700;2022-10-16T04:28:55;100247.09;;;14.63;100.00
40940;BME280;26666;50.156;7.700;2022-10-16T04:33:56;100251.56;;;14.63;100.00
40940;BME280;26666;50.156;7.700;2022-10-16T04:38:58;100255.25;;;14.62;100.00
40940;BME280;26666;50.156;7.700;2022-10-16T04:43:59;100267.00;;;14.59;100.00
40940;BME280;26666;50.156;7.700;2022-10-16T04:49:01;100267.69;;;14.61;100.00
40940;BME280;26666;50.156;7.700;2022-10-16T04:54:03;100276.41;;;14.71;100.00
40940;BME280;26666;50.156;7.700;2022-10-16T04:59:04;100258.22;;;14.58;100.00
40940;BME280;26666;50.156;7.700;2022-10-16T05:04:05;100272.84;;;14.63;100.00
40940;BME280;26666;50.156;7.700;2022-10-16T05:09:08;100275.94;;;14.50;100.00
40940;BME280;26666;50.156;7.700;2022-10-16T05:14:09;100271.97;;;14.54;100.00
40940;BME280;26666;50.156;7.700;2022-10-16T05:19:11;100268.19;;;14.65;100.00
40940;BME280;26666;50.156;7.700;2022-10-16T05:24:29;100278.16;;;14.63;100.00
40940;BME280;26666;50.156;7.700;2022-10-16T05:29:31;100268.28;;;14.55;100.00
40940;BME280;26666;50.156;7.700;2022-10-16T05:34:32;100282.59;;;14.54;100.00
40940;BME280;26666;50.156;7.700;2022-10-16T05:39:34;100291.22;;;14.48;100.00
40940;BME280;26666;50.156;7.700;2022-10-16T05:44:35;100296.44;;;14.57;100.00
40940;BME280;26666;50.156;7.700;2022-10-16T05:49:36;100280.50;;;14.57;100.00
40940;BME280;26666;50.156;7.700;2022-10-16T05:54:41;100302.25;;;14.61;100.00
40940;BME280;26666;50.156;7.700;2022-10-16T05:59:43;100300.53;;;14.52;100.00
40940;BME280;26666;50.156;7.700;2022-10-16T06:04:44;100292.22;;;14.55;100.00
40940;BME280;26666;50.156;7.700;2022-10-16T06:09:52;100292.78;;;14.58;100.00
40940;BME280;26666;50.156;7.700;2022-10-16T06:14:54;100292.78;;;14.58;100.00
40940;BME280;26666;50.156;7.700;2022-10-16T06:19:55;100300.97;;;14.65;100.00
40940;BME280;26666;50.156;7.700;2022-10-16T06:24:57;100308.19;;;14.55;100.00
40940;BME280;26666;50.156;7.700;2022-10-16T06:29:58;100314.56;;;14.62;100.00
40940;BME280;26666;50.156;7.700;2022-10-16T06:35:00;100307.25;;;14.64;100.00
40940;BME280;26666;50.156;7.700;2022-10-16T06:40:02;100333.94;;;14.54;100.00
40940;BME280;26666;50.156;7.700;2022-10-16T06:45:03;100345.72;;;14.52;100.00
40940;BME280;26666;50.156;7.700;2022-10-16T06:50:05;100353.78;;;14.60;100.00
40940;BME280;26666;50.156;7.700;2022-10-16T06:55:07;100361.59;;;14.62;100.00
40940;BME280;26666;50.156;7.700;2022-10-16T07:00:09;100370.63;;;14.51;100.00
40940;BME280;26666;50.156;7.700;2022-10-16T07:05:10;100392.34;;;14.64;100.00
40940;BME280;26666;50.156;7.700;2022-10-16T07:10:12;100403.63;;;14.58;100.00
40940;BME280;26666;50.156;7.700;2022-10-16T07:15:13;100407.19;;;14.49;100.00
40940;BME280;26666;50.156;7.700;2022-10-16T07:20:15;100414.47;;;14.65;100.00
40940;BME280;26666;50.156;7.700;2022-10-16T07:25:16;100412.81;;;14.64;100.00
40940;BME280;26666;50.156;7.700;2022-10-16T07:30:18;100436.25;;;14.68;100.00
40940;BME280;26666;50.156;7.700;2022-10-16T07:35:19;100442.09;;;14.72;100.00
40940;BME280;26666;50.156;7.700;2022-10-16T07:40:21;100451.16;;;14.61;100.00
40940;BME280;26666;50.156;7.700;2022-10-16T07:45:22;100449.03;;;14.65;100.00
40940;BME280;26666;50.156;7.700;2022-10-16T07:50:24;100464.53;;;14.69;100.00
40940;BME280;26666;50.156;7.700;2022-10-16T07:55:25;100474.22;;;14.78;100.00
40940;BME280;26666;50.156;7.700;2022-10-16T08:00:27;100481.06;;;14.81;100.00
40940;BME280;26666;50.156;7.700;2022-10-16T08:05:30;100479.88;;;14.75;100.00
40940;BME280;26666;50.156;7.700;2022-10-16T08:10:32;100493.94;;;14.68;100.00
40940;BME280;26666;50.156;7.700;2022-10-16T08:15:33;100492.69;;;14.80;100.00
40940;BME280;26666;50.156;7.700;2022-10-16T08:20:35;100488.97;;;14.91;100.00
40940;BME280;26666;50.156;7.700;2022-10-16T08:25:37;100492.25;;;14.85;100.00
40940;BME280;26666;50.156;7.700;2022-10-16T08:30:39;100497.72;;;14.83;100.00
40940;BME280;26666;50.156;7.700;2022-10-16T08:35:40;100510.00;;;14.84;100.00
40940;BME280;26666;50.156;7.700;2022-10-16T08:40:42;100519.03;;;14.91;100.00
40940;BME280;26666;50.156;7.700;2022-10-16T08:51:04;100523.53;;;15.17;100.00
40940;BME280;26666;50.156;7.700;2022-10-16T08:56:06;100534.00;;;15.10;100.00
40940;BME280;26666;50.156;7.700;2022-10-16T09:01:13;100528.97;;;15.07;100.00
40940;BME280;26666;50.156;7.700;2022-10-16T09:06:42;100533.94;;;15.02;100.00
40940;BME280;26666;50.156;7.700;2022-10-16T09:17:52;100549.38;;;14.98;100.00
40940;BME280;26666;50.156;7.700;2022-10-16T09:28:08;100557.78;;;15.12;100.00
40940;BME280;26666;50.156;7.700;2022-10-16T09:33:10;100563.06;;;15.30;100.00
40940;BME280;26666;50.156;7.700;2022-10-16T09:38:29;100568.22;;;15.31;100.00
40940;BME280;26666;50.156;7.700;2022-10-16T09:43:36;100574.47;;;15.48;100.00
40940;BME280;26666;50.156;7.700;2022-10-16T09:48:44;100575.03;;;15.60;100.00
40940;BME280;26666;50.156;7.700;2022-10-16T09:53:46;100562.19;;;15.55;100.00
40940;BME280;26666;50.156;7.700;2022-10-16T09:58:53;100554.28;;;15.72;100.00
40940;BME280;26666;50.156;7.700;2022-10-16T10:03:56;100555.06;;;15.90;100.00
40940;BME280;26666;50.156;7.700;2022-10-16T10:08:59;100547.25;;;15.97;100.00
40940;BME280;26666;50.156;7.700;2022-10-16T10:19:23;100562.78;;;16.10;100.00
40940;BME280;26666;50.156;7.700;2022-10-16T10:24:28;100554.44;;;16.13;100.00
40940;BME280;26666;50.156;7.700;2022-10-16T10:29:36;100552.66;;;16.38;100.00
40940;BME280;26666;50.156;7.700;2022-10-16T10:40:55;100546.19;;;16.32;100.00
40940;BME280;26666;50.156;7.700;2022-10-16T10:45:43;100541.16;;;16.29;100.00
40940;BME280;26666;50.156;7.700;2022-10-16T10:50:51;100539.84;;;16.33;100.00
40940;BME280;26666;50.156;7.700;2022-10-16T11:07:00;100527.84;;;16.29;100.00
40940;BME280;26666;50.156;7.700;2022-10-16T11:12:17;100529.84;;;16.27;100.00
40940;BME280;26666;50.156;7.700;2022-10-16T11:17:23;100537.63;;;16.21;100.00
40940;BME280;26666;50.156;7.700;2022-10-16T11:22:38;100554.31;;;16.23;100.00
40940;BME280;26666;50.156;7.700;2022-10-16T11:33:13;100550.88;;;16.39;100.00
40940;BME280;26666;50.156;7.700;2022-10-16T11:38:52;100549.19;;;16.79;100.00
40940;BME280;26666;50.156;7.700;2022-10-16T11:49:11;100544.50;;;16.31;100.00
40940;BME280;26666;50.156;7.700;2022-10-16T11:54:22;100536.19;;;16.34;100.00
40940;BME280;26666;50.156;7.700;2022-10-16T11:59:44;100536.81;;;16.28;100.00
40940;BME280;26666;50.156;7.700;2022-10-16T12:05:12;100533.69;;;16.58;100.00
40940;BME280;26666;50.156;7.700;2022-10-16T12:10:25;100539.88;;;16.74;100.00
40940;BME280;26666;50.156;7.700;2022-10-16T12:15:31;100540.88;;;16.57;100.00
40940;BME280;26666;50.156;7.700;2022-10-16T12:20:57;100549.69;;;16.49;100.00
40940;BME280;26666;50.156;7.700;2022-10-16T12:26:00;100555.22;;;16.56;100.00
40940;BME280;26666;50.156;7.700;2022-10-16T12:31:05;100559.03;;;16.45;100.00
40940;BME280;26666;50.156;7.700;2022-10-16T12:36:10;100577.00;;;16.35;100.00
40940;BME280;26666;50.156;7.700;2022-10-16T12:41:25;100586.34;;;16.39;100.00
40940;BME280;26666;50.156;7.700;2022-10-16T13:02:01;100553.56;;;16.88;100.00
40940;BME280;26666;50.156;7.700;2022-10-16T13:07:15;100551.06;;;16.62;100.00
40940;BME280;26666;50.156;7.700;2022-10-16T13:12:33;100546.38;;;16.64;100.00
40940;BME280;26666;50.156;7.700;2022-10-16T13:28:22;100558.22;;;16.78;100.00
40940;BME280;26666;50.156;7.700;2022-10-16T13:33:36;100549.53;;;16.67;100.00
40940;BME280;26666;50.156;7.700;2022-10-16T13:38:38;100554.34;;;16.55;100.00
40940;BME280;26666;50.156;7.700;2022-10-16T13:43:42;100554.88;;;16.59;100.00
40940;BME280;26666;50.156;7.700;2022-10-16T13:49:05;100561.69;;;16.53;100.00
40940;BME280;26666;50.156;7.700;2022-10-16T13:54:12;100571.03;;;16.58;100.00
40940;BME280;26666;50.156;7.700;2022-10-16T13:59:33;100570.19;;;16.57;100.00
40940;BME280;26666;50.156;7.700;2022-10-16T14:04:38;100551.22;;;16.60;100.00
40940;BME280;26666;50.156;7.700;2022-10-16T14:09:40;100563.03;;;16.58;100.00
40940;BME280;26666;50.156;7.700;2022-10-16T14:14:43;100568.03;;;16.61;100.00
40940;BME280;26666;50.156;7.700;2022-10-16T14:19:47;100557.22;;;16.54;100.00
40940;BME280;26666;50.156;7.700;2022-10-16T14:24:55;100555.38;;;16.46;100.00
40940;BME280;26666;50.156;7.700;2022-10-16T14:30:12;100551.53;;;16.49;100.00
40940;BME280;26666;50.156;7.700;2022-10-16T14:35:27;100553.69;;;16.53;100.00
40940;BME280;26666;50.156;7.700;2022-10-16T14:40:31;100551.69;;;16.55;100.00
40940;BME280;26666;50.156;7.700;2022-10-16T14:45:34;100558.00;;;16.38;100.00
40940;BME280;26666;50.156;7.700;2022-10-16T14:50:36;100558.50;;;16.25;100.00
40940;BME280;26666;50.156;7.700;2022-10-16T14:55:38;100567.97;;;16.20;100.00
40940;BME280;26666;50.156;7.700;2022-10-16T15:00:41;100583.16;;;16.27;100.00
40940;BME280;26666;50.156;7.700;2022-10-16T15:05:42;100589.19;;;16.38;100.00
40940;BME280;26666;50.156;7.700;2022-10-16T15:10:44;100577.53;;;16.47;100.00
40940;BME280;26666;50.156;7.700;2022-10-16T15:15:46;100580.72;;;16.50;100.00
40940;BME280;26666;50.156;7.700;2022-10-16T15:20:49;100599.38;;;16.50;100.00
40940;BME280;26666;50.156;7.700;2022-10-16T15:25:54;100599.69;;;16.39;100.00
40940;BME280;26666;50.156;7.700;2022-10-16T15:30:56;100591.00;;;16.29;100.00
40940;BME280;26666;50.156;7.700;2022-10-16T15:35:58;100595.31;;;16.22;100.00
40940;BME280;26666;50.156;7.700;2022-10-16T15:40:59;100594.78;;;16.18;100.00
40940;BME280;26666;50.156;7.700;2022-10-16T15:51:07;100573.03;;;20.79;100.00
40940;BME280;26666;50.156;7.700;2022-10-16T15:56:10;100570.66;;;21.48;100.00
40940;BME280;26666;50.156;7.700;2022-10-16T16:01:11;100565.31;;;21.89;100.00
40940;BME280;26666;50.156;7.700;2022-10-16T16:06:14;100567.88;;;22.17;100.00
